sensor_id;sensor_type;location;lat;lon;timestamp;temperature;humidity
8780;DHT22;62328;51.19929245;4.42130175;2023-07-16T00:02:05;19.60;99.90
8780;DHT22;62328;51.19929245;4.42130175;2023-07-16T00:04:32;19.60;99.90
8780;DHT22;62328;51.19929245;4.42130175;2023-07-16T00:07:00;19.60;99.90
8780;DHT22;62328;51.19929245;4.42130175;2023-07-16T00:09:27;19.50;99.90
8780;DHT22;62328;51.19929245;4.42130175;2023-07-16T00:11:55;19.60;99.90
8780;DHT22;62328;51.19929245;4.42130175;2023-07-16T00:14:22;19.60;99.90
8780;DHT22;62328;51.19929245;4.42130175;2023-07-16T00:16:49;19.50;99.90
8780;DHT22;62328;51.19929245;4.42130175;2023-07-16T00:19:17;19.60;99.90
8780;DHT22;62328;51.19929245;4.42130175;2023-07-16T00:21:45;19.60;99.90
8780;DHT22;62328;51.19929245;4.42130175;2023-07-16T00:24:12;19.50;99.90
8780;DHT22;62328;51.19929245;4.42130175;2023-07-16T00:26:39;19.50;99.90
8780;DHT22;62328;51.19929245;4.42130175;2023-07-16T00:29:06;19.50;99.90
8780;DHT22;62328;51.19929245;4.42130175;2023-07-16T00:31:34;19.40;99.90
8780;DHT22;62328;51.19929245;4.42130175;2023-07-16T00:34:01;19.40;99.90
8780;DHT22;62328;51.19929245;4.42130175;2023-07-16T00:36:30;19.40;99.90
8780;DHT22;62328;51.19929245;4.42130175;2023-07-16T00:38:57;19.30;99.90
8780;DHT22;62328;51.19929245;4.42130175;2023-07-16T00:41:24;19.40;99.90
8780;DHT22;62328;51.19929245;4.42130175;2023-07-16T00:43:52;19.40;99.90
8780;DHT22;62328;51.19929245;4.42130175;2023-07-16T00:46:20;19.40;99.90
8780;DHT22;62328;51.19929245;4.42130175;2023-07-16T00:48:47;19.30;99.90
8780;DHT22;62328;51.19929245;4.42130175;2023-07-16T00:51:14;19.30;99.90
8780;DHT22;62328;51.19929245;4.42130175;2023-07-16T00:53:43;19.30;99.90
8780;DHT22;62328;51.19929245;4.42130175;2023-07-16T00:56:16;19.30;99.90
8780;DHT22;62328;51.19929245;4.42130175;2023-07-16T00:58:46;19.40;99.90
8780;DHT22;62328;51.19929245;4.42130175;2023-07-16T01:01:13;19.30;99.90
8780;DHT22;62328;51.19929245;4.42130175;2023-07-16T01:03:43;19.30;99.90
8780;DHT22;62328;51.19929245;4.42130175;2023-07-16T01:06:15;19.30;99.90
8780;DHT22;62328;51.19929245;4.42130175;2023-07-16T01:08:47;19.30;99.90
8780;DHT22;62328;51.19929245;4.42130175;2023-07-16T01:11:17;19.30;99.90
8780;DHT22;62328;51.19929245;4.42130175;2023-07-16T01:13:45;19.30;99.90
8780;DHT22;62328;51.19929245;4.42130175;2023-07-16T01:16:19;19.20;99.90
8780;DHT22;62328;51.19929245;4.42130175;2023-07-16T01:18:47;19.20;99.90
8780;DHT22;62328;51.19929245;4.42130175;2023-07-16T01:21:15;19.20;99.90
8780;DHT22;62328;51.19929245;4.42130175;2023-07-16T01:24:00;19.10;99.90
8780;DHT22;62328;51.19929245;4.42130175;2023-07-16T01:26:46;19.10;99.90
8780;DHT22;62328;51.19929245;4.42130175;2023-07-16T01:29:28;19.00;99.90
8780;DHT22;62328;51.19929245;4.42130175;2023-07-16T01:31:56;19.00;99.90
8780;DHT22;62328;51.19929245;4.42130175;2023-07-16T01:34:28;19.00;99.90
8780;DHT22;62328;51.19929245;4.42130175;2023-07-16T01:36:55;18.90;99.90
8780;DHT22;62328;51.19929245;4.42130175;2023-07-16T01:39:23;18.90;99.90
8780;DHT22;62328;51.19929245;4.42130175;2023-07-16T01:41:51;18.90;99.90
8780;DHT22;62328;51.19929245;4.42130175;2023-07-16T01:44:19;18.80;99.90
8780;DHT22;62328;51.19929245;4.42130175;2023-07-16T01:46:53;18.80;99.90
8780;DHT22;62328;51.19929245;4.42130175;2023-07-16T01:49:26;18.80;99.90
8780;DHT22;62328;51.19929245;4.42130175;2023-07-16T01:51:53;18.80;99.90
8780;DHT22;62328;51.19929245;4.42130175;2023-07-16T01:54:20;18.70;99.90
8780;DHT22;62328;51.19929245;4.42130175;2023-07-16T01:56:48;18.70;99.90
8780;DHT22;62328;51.19929245;4.42130175;2023-07-16T01:59:15;18.70;99.90
8780;DHT22;62328;51.19929245;4.42130175;2023-07-16T02:01:43;18.60;99.90
8780;DHT22;62328;51.19929245;4.42130175;2023-07-16T02:04:10;18.70;99.90
8780;DHT22;62328;51.19929245;4.42130175;2023-07-16T02:06:37;18.60;99.90
8780;DHT22;62328;51.19929245;4.42130175;2023-07-16T02:09:05;18.60;99.90
8780;DHT22;62328;51.19929245;4.42130175;2023-07-16T02:11:32;18.50;99.90
8780;DHT22;62328;51.19929245;4.42130175;2023-07-16T02:13:59;18.50;99.90
8780;DHT22;62328;51.19929245;4.42130175;2023-07-16T02:16:26;18.50;99.90
8780;DHT22;62328;51.19929245;4.42130175;2023-07-16T02:18:56;18.50;99.90
8780;DHT22;62328;51.19929245;4.42130175;2023-07-16T02:21:23;18.40;99.90
8780;DHT22;62328;51.19929245;4.42130175;2023-07-16T02:23:50;18.30;99.90
8780;DHT22;62328;51.19929245;4.42130175;2023-07-16T02:26:18;18.30;99.90
8780;DHT22;62328;51.19929245;4.42130175;2023-07-16T02:28:45;18.30;99.90
8780;DHT22;62328;51.19929245;4.42130175;2023-07-16T02:31:13;18.30;99.90
8780;DHT22;62328;51.19929245;4.42130175;2023-07-16T02:33:40;18.30;99.90
8780;DHT22;62328;51.19929245;4.42130175;2023-07-16T02:36:09;18.30;99.90
8780;DHT22;62328;51.19929245;4.42130175;2023-07-16T02:38:39;18.30;99.90
8780;DHT22;62328;51.19929245;4.42130175;2023-07-16T02:41:12;18.30;99.90
8780;DHT22;62328;51.19929245;4.42130175;2023-07-16T02:43:39;18.30;99.90
8780;DHT22;62328;51.19929245;4.42130175;2023-07-16T02:46:10;18.30;99.90
8780;DHT22;62328;51.19929245;4.42130175;2023-07-16T02:48:40;18.30;99.90
8780;DHT22;62328;51.19929245;4.42130175;2023-07-16T02:51:10;18.40;99.90
8780;DHT22;62328;51.19929245;4.42130175;2023-07-16T02:53:37;18.30;99.90
8780;DHT22;62328;51.19929245;4.42130175;2023-07-16T02:56:06;18.30;99.90
8780;DHT22;62328;51.19929245;4.42130175;2023-07-16T02:58:37;18.30;99.90
8780;DHT22;62328;51.19929245;4.42130175;2023-07-16T03:01:05;18.30;99.90
8780;DHT22;62328;51.19929245;4.42130175;2023-07-16T03:03:35;18.20;99.90
8780;DHT22;62328;51.19929245;4.42130175;2023-07-16T03:06:03;18.20;99.90
8780;DHT22;62328;51.19929245;4.42130175;2023-07-16T03:08:34;18.10;99.90
8780;DHT22;62328;51.19929245;4.42130175;2023-07-16T03:11:01;18.10;99.90
8780;DHT22;62328;51.19929245;4.42130175;2023-07-16T03:13:29;18.20;99.90
8780;DHT22;62328;51.19929245;4.42130175;2023-07-16T03:15:57;18.20;99.90
8780;DHT22;62328;51.19929245;4.42130175;2023-07-16T03:18:28;18.20;99.90
8780;DHT22;62328;51.19929245;4.42130175;2023-07-16T03:20:55;18.10;99.90
8780;DHT22;62328;51.19929245;4.42130175;2023-07-16T03:23:24;18.20;99.90
8780;DHT22;62328;51.19929245;4.42130175;2023-07-16T03:25:54;18.10;99.90
8780;DHT22;62328;51.19929245;4.42130175;2023-07-16T03:28:21;18.10;99.90
8780;DHT22;62328;51.19929245;4.42130175;2023-07-16T03:30:49;18.10;99.90
8780;DHT22;62328;51.19929245;4.42130175;2023-07-16T03:33:17;18.10;99.90
8780;DHT22;62328;51.19929245;4.42130175;2023-07-16T03:35:45;18.10;99.90
8780;DHT22;62328;51.19929245;4.42130175;2023-07-16T03:38:13;18.00;99.90
8780;DHT22;62328;51.19929245;4.42130175;2023-07-16T03:40:42;18.00;99.90
8780;DHT22;62328;51.19929245;4.42130175;2023-07-16T03:43:12;18.00;99.90
8780;DHT22;62328;51.19929245;4.42130175;2023-07-16T03:45:40;18.00;99.90
8780;DHT22;62328;51.19929245;4.42130175;2023-07-16T03:48:07;18.00;99.90
8780;DHT22;62328;51.19929245;4.42130175;2023-07-16T03:50:35;17.90;99.90
8780;DHT22;62328;51.19929245;4.42130175;2023-07-16T03:53:02;17.90;99.90
8780;DHT22;62328;51.19929245;4.42130175;2023-07-16T03:55:29;18.00;99.90
8780;DHT22;62328;51.19929245;4.42130175;2023-07-16T03:57:57;18.00;99.90
8780;DHT22;62328;51.19929245;4.42130175;2023-07-16T04:00:26;18.00;99.90
8780;DHT22;62328;51.19929245;4.42130175;2023-07-16T04:02:53;17.90;99.90
8780;DHT22;62328;51.19929245;4.42130175;2023-07-16T04:05:20;17.90;99.90
8780;DHT22;62328;51.19929245;4.42130175;2023-07-16T04:07:47;17.90;99.90
8780;DHT22;62328;51.19929245;4.42130175;2023-07-16T04:10:14;18.00;99.90
8780;DHT22;62328;51.19929245;4.42130175;2023-07-16T04:12:41;17.90;99.90
8780;DHT22;62328;51.19929245;4.42130175;2023-07-16T04:15:09;17.90;99.90
8780;DHT22;62328;51.19929245;4.42130175;2023-07-16T04:17:38;17.90;99.90
8780;DHT22;62328;51.19929245;4.42130175;2023-07-16T04:20:07;17.90;99.90
8780;DHT22;62328;51.19929245;4.42130175;2023-07-16T04:22:34;17.90;99.90
8780;DHT22;62328;51.19929245;4.42130175;2023-07-16T04:25:02;17.90;99.90
8780;DHT22;62328;51.19929245;4.42130175;2023-07-16T04:27:29;17.90;99.90
8780;DHT22;62328;51.19929245;4.42130175;2023-07-16T04:29:56;17.90;99.90
8780;DHT22;62328;51.19929245;4.42130175;2023-07-16T04:32:25;17.80;99.90
8780;DHT22;62328;51.19929245;4.42130175;2023-07-16T04:34:54;17.90;99.90
8780;DHT22;62328;51.19929245;4.42130175;2023-07-16T04:37:21;17.90;99.90
8780;DHT22;62328;51.19929245;4.42130175;2023-07-16T04:39:48;17.90;99.90
8780;DHT22;62328;51.19929245;4.42130175;2023-07-16T04:42:16;17.80;99.90
8780;DHT22;62328;51.19929245;4.42130175;2023-07-16T04:44:43;17.80;99.90
8780;DHT22;62328;51.19929245;4.42130175;2023-07-16T04:47:12;17.80;99.90
8780;DHT22;62328;51.19929245;4.42130175;2023-07-16T04:49:39;17.70;99.90
8780;DHT22;62328;51.19929245;4.42130175;2023-07-16T04:52:08;17.80;99.90
8780;DHT22;62328;51.19929245;4.42130175;2023-07-16T04:54:36;17.70;99.90
8780;DHT22;62328;51.19929245;4.42130175;2023-07-16T04:57:05;17.80;99.90
8780;DHT22;62328;51.19929245;4.42130175;2023-07-16T04:59:33;17.80;99.90
8780;DHT22;62328;51.19929245;4.42130175;2023-07-16T05:02:04;17.80;99.90
8780;DHT22;62328;51.19929245;4.42130175;2023-07-16T05:04:32;17.80;99.90
8780;DHT22;62328;51.19929245;4.42130175;2023-07-16T05:07:00;17.80;99.90
8780;DHT22;62328;51.19929245;4.42130175;2023-07-16T05:09:29;17.80;99.90
8780;DHT22;62328;51.19929245;4.42130175;2023-07-16T05:11:56;17.80;99.90
8780;DHT22;62328;51.19929245;4.42130175;2023-07-16T05:14:26;17.90;99.90
8780;DHT22;62328;51.19929245;4.42130175;2023-07-16T05:16:54;17.80;99.90
8780;DHT22;62328;51.19929245;4.42130175;2023-07-16T05:19:23;17.80;99.90
8780;DHT22;62328;51.19929245;4.42130175;2023-07-16T05:21:50;17.80;99.90
8780;DHT22;62328;51.19929245;4.42130175;2023-07-16T05:24:20;17.80;99.90
8780;DHT22;62328;51.19929245;4.42130175;2023-07-16T05:26:53;17.80;99.90
8780;DHT22;62328;51.19929245;4.42130175;2023-07-16T05:29:20;17.70;99.90
8780;DHT22;62328;51.19929245;4.42130175;2023-07-16T05:31:47;17.70;99.90
8780;DHT22;62328;51.19929245;4.42130175;2023-07-16T05:34:15;17.80;99.90
8780;DHT22;62328;51.19929245;4.42130175;2023-07-16T05:36:44;17.80;99.90
8780;DHT22;62328;51.19929245;4.42130175;2023-07-16T05:39:12;17.80;99.90
8780;DHT22;62328;51.19929245;4.42130175;2023-07-16T05:41:39;17.80;99.90
8780;DHT22;62328;51.19929245;4.42130175;2023-07-16T05:44:09;17.90;99.90
8780;DHT22;62328;51.19929245;4.42130175;2023-07-16T05:46:38;17.80;99.90
8780;DHT22;62328;51.19929245;4.42130175;2023-07-16T05:49:05;17.90;99.90
8780;DHT22;62328;51.19929245;4.42130175;2023-07-16T05:51:33;17.90;99.90
8780;DHT22;62328;51.19929245;4.42130175;2023-07-16T05:54:01;17.90;99.90
8780;DHT22;62328;51.19929245;4.42130175;2023-07-16T05:56:29;18.00;99.90
8780;DHT22;62328;51.19929245;4.42130175;2023-07-16T05:58:56;17.90;99.90
8780;DHT22;62328;51.19929245;4.42130175;2023-07-16T06:01:26;17.90;99.90
8780;DHT22;62328;51.19929245;4.42130175;2023-07-16T06:03:53;17.90;99.90
8780;DHT22;62328;51.19929245;4.42130175;2023-07-16T06:06:21;17.90;99.90
8780;DHT22;62328;51.19929245;4.42130175;2023-07-16T06:08:50;17.90;99.90
8780;DHT22;62328;51.19929245;4.42130175;2023-07-16T06:11:19;17.90;99.90
8780;DHT22;62328;51.19929245;4.42130175;2023-07-16T06:13:47;18.00;99.90
8780;DHT22;62328;51.19929245;4.42130175;2023-07-16T06:16:14;18.10;99.90
8780;DHT22;62328;51.19929245;4.42130175;2023-07-16T06:18:43;18.10;99.90
8780;DHT22;62328;51.19929245;4.42130175;2023-07-16T06:21:10;18.10;99.90
8780;DHT22;62328;51.19929245;4.42130175;2023-07-16T06:23:38;18.10;99.90
8780;DHT22;62328;51.19929245;4.42130175;2023-07-16T06:26:06;18.20;99.90
8780;DHT22;62328;51.19929245;4.42130175;2023-07-16T06:28:34;18.20;99.90
8780;DHT22;62328;51.19929245;4.42130175;2023-07-16T06:31:01;18.20;99.90
8780;DHT22;62328;51.19929245;4.42130175;2023-07-16T06:33:28;18.20;99.90
8780;DHT22;62328;51.19929245;4.42130175;2023-07-16T06:35:57;18.30;99.90
8780;DHT22;62328;51.19929245;4.42130175;2023-07-16T06:38:24;18.20;99.90
8780;DHT22;62328;51.19929245;4.42130175;2023-07-16T06:40:52;18.30;99.90
8780;DHT22;62328;51.19929245;4.42130175;2023-07-16T06:43:19;18.30;99.90
8780;DHT22;62328;51.19929245;4.42130175;2023-07-16T06:45:49;18.30;99.90
8780;DHT22;62328;51.19929245;4.42130175;2023-07-16T06:48:16;18.30;99.90
8780;DHT22;62328;51.19929245;4.42130175;2023-07-16T06:50:43;18.50;99.90
8780;DHT22;62328;51.19929245;4.42130175;2023-07-16T06:53:12;18.40;99.90
8780;DHT22;62328;51.19929245;4.42130175;2023-07-16T06:55:39;18.50;99.90
8780;DHT22;62328;51.19929245;4.42130175;2023-07-16T06:58:13;18.50;99.90
8780;DHT22;62328;51.19929245;4.42130175;2023-07-16T07:00:41;18.50;99.90
8780;DHT22;62328;51.19929245;4.42130175;2023-07-16T07:03:08;18.50;99.90
8780;DHT22;62328;51.19929245;4.42130175;2023-07-16T07:05:40;18.60;99.90
8780;DHT22;62328;51.19929245;4.42130175;2023-07-16T07:08:07;18.60;99.90
8780;DHT22;62328;51.19929245;4.42130175;2023-07-16T07:10:36;18.70;99.90
8780;DHT22;62328;51.19929245;4.42130175;2023-07-16T07:13:05;18.70;99.90
8780;DHT22;62328;51.19929245;4.42130175;2023-07-16T07:15:32;18.70;99.90
8780;DHT22;62328;51.19929245;4.42130175;2023-07-16T07:17:59;18.80;99.90
8780;DHT22;62328;51.19929245;4.42130175;2023-07-16T07:20:27;18.90;99.90
8780;DHT22;62328;51.19929245;4.42130175;2023-07-16T07:22:54;18.90;99.90
8780;DHT22;62328;51.19929245;4.42130175;2023-07-16T07:25:21;19.00;99.90
8780;DHT22;62328;51.19929245;4.42130175;2023-07-16T07:27:50;18.90;99.90
8780;DHT22;62328;51.19929245;4.42130175;2023-07-16T07:30:17;19.00;99.90
8780;DHT22;62328;51.19929245;4.42130175;2023-07-16T07:32:45;19.00;99.90
8780;DHT22;62328;51.19929245;4.42130175;2023-07-16T07:35:12;19.00;99.90
8780;DHT22;62328;51.19929245;4.42130175;2023-07-16T07:37:40;19.10;99.90
8780;DHT22;62328;51.19929245;4.42130175;2023-07-16T07:40:09;19.10;99.90
8780;DHT22;62328;51.19929245;4.42130175;2023-07-16T07:42:37;19.20;99.90
8780;DHT22;62328;51.19929245;4.42130175;2023-07-16T07:45:06;19.30;99.90
8780;DHT22;62328;51.19929245;4.42130175;2023-07-16T07:47:37;19.30;99.90
8780;DHT22;62328;51.19929245;4.42130175;2023-07-16T07:50:06;19.40;99.90
8780;DHT22;62328;51.19929245;4.42130175;2023-07-16T07:52:34;19.50;99.90
8780;DHT22;62328;51.19929245;4.42130175;2023-07-16T07:55:01;19.60;99.90
8780;DHT22;62328;51.19929245;4.42130175;2023-07-16T07:57:29;19.60;99.90
8780;DHT22;62328;51.19929245;4.42130175;2023-07-16T07:59:56;19.70;99.90
8780;DHT22;62328;51.19929245;4.42130175;2023-07-16T08:02:25;19.90;99.90
8780;DHT22;62328;51.19929245;4.42130175;2023-07-16T08:04:53;19.90;99.90
8780;DHT22;62328;51.19929245;4.42130175;2023-07-16T08:07:22;20.00;99.90
8780;DHT22;62328;51.19929245;4.42130175;2023-07-16T08:09:49;19.90;99.90
8780;DHT22;62328;51.19929245;4.42130175;2023-07-16T08:12:17;20.10;99.90
8780;DHT22;62328;51.19929245;4.42130175;2023-07-16T08:14:44;20.10;99.90
8780;DHT22;62328;51.19929245;4.42130175;2023-07-16T08:17:11;20.10;99.90
8780;DHT22;62328;51.19929245;4.42130175;2023-07-16T08:19:40;20.30;99.90
8780;DHT22;62328;51.19929245;4.42130175;2023-07-16T08:22:07;20.30;99.90
8780;DHT22;62328;51.19929245;4.42130175;2023-07-16T08:24:34;20.30;99.90
8780;DHT22;62328;51.19929245;4.42130175;2023-07-16T08:27:02;20.20;99.90
8780;DHT22;62328;51.19929245;4.42130175;2023-07-16T08:29:29;20.10;99.90
8780;DHT22;62328;51.19929245;4.42130175;2023-07-16T08:31:56;20.20;99.90
8780;DHT22;62328;51.19929245;4.42130175;2023-07-16T08:34:24;20.00;99.90
8780;DHT22;62328;51.19929245;4.42130175;2023-07-16T08:36:52;20.20;99.90
